Observations for TRAVERSE CITY CHERR, MI (TVC)

KTVC 230515Z AUTO 01006KT 2 1/2SM BR OVC003 02/02 A2944 RMK AO2 T00220017
KTVC 230453Z AUTO 03005KT 4SM BR OVC003 02/02 A2946 RMK AO2 SLP981 T00220017 400330006  
KTVC 230417Z AUTO 04004KT 10SM OVC004 02/02 A2947 RMK AO2 CIG 003V006 T00220017
KTVC 230353Z AUTO 02007KT 10SM OVC005 02/02 A2948 RMK AO2 RAE06 CIG 003V007 SLP987 P0001 T00220017  
KTVC 230253Z AUTO 05006KT 4SM -RA BR OVC006 02/02 A2950 RMK AO2 RAE01B40 SLP996 P0004 60011 T00220017 56015 
KTVC 230207Z AUTO 02005KT 10SM OVC006 02/02 A2950 RMK AO2 RAE01 P0000 T00220017
KTVC 230153Z 04005KT 2SM -RA BR FEW002 OVC007 02/02 A2950 RMK AO2 SFC VIS 3 SLP997 LAST P0002 T00220017 
KTVC 230053Z 04004KT 2SM -RA BR OVC007 02/02 A2953 RMK AO2 SFC VIS 2 1/2 DZE07RAB07 SLP005 P0005 T00220017  
KTVC 222353Z 04005KT 2SM -DZ BR OVC007 02/02 A2955 RMK AO2 RAE51DZB51 SLP011 P0000 60017 T00220017 10028 20022 58014
KTVC 222253Z 05004KT 2SM -RA BR OVC009 02/02 A2956 RMK AO2 SFC VIS 2 1/2 SLP017 P0004 T00220017 
KTVC 222235Z 05005KT 2SM -RA BR OVC009 02/02 A2957 RMK AO2 SFC VIS 2 1/2 P0003 T00220017
KTVC 222153Z 06005KT 2SM -RA BR OVC010 02/02 A2957 RMK AO2 SLP020 P0001 T00220017   
KTVC 222053Z 07006KT 2SM -RA BR OVC010 02/02 A2959 RMK AO2 SLP025 P0003 60012 T00220017 56039   
KTVC 222005Z 08008KT 2SM -RA BR OVC012 02/01 A2960 RMK AO2 P0001 T00220011
KTVC 221953Z 07008KT 4SM -RA BR OVC012 03/01 A2961 RMK AO2 SLP034 P0003 T00280011   
KTVC 221853Z 08005KT 4SM -RA BR OVC013 02/01 A2966 RMK AO2 SLP050 P0006 T00220011   
KTVC 221753Z 08005KT 3SM RA BR OVC012 02/01 A2971 RMK AO2 SLP066 P0012 60029 T00220011 10033 20022 58041
KTVC 221653Z 07008G19KT 4SM -RA BR OVC012 03/01 A2974 RMK AO2 PRESFR SLP078 P0010 T00280011 
KTVC 221553Z 07008G16KT 3SM -RA BR OVC012 03/01 A2980 RMK AO2 SLP096 P0005 T00280011
KTVC 221453Z 07011G16KT 3SM -RA BR OVC012 03/01 A2983 RMK AO2 SLP107 P0001 60002 T00280011 58020
KTVC 221353Z 08007KT 2 1/2SM -RA OVC013 03/01 A2986 RMK AO2 SLP117 P0001 T00280011  
KTVC 221341Z 08011G18KT 4SM -RA OVC013 03/01 A2986 RMK AO2 P0001 T00280011
KTVC 221253Z 07009KT 7SM -RA OVC017 03/01 A2988 RMK AO2 RAE28B49 SLP126 P0000 T00330006 
KTVC 221231Z 07007KT 7SM BKN015 OVC033 03/01 A2988 RMK AO2 RAE28 P0000 T00330011
KTVC 221153Z 08005KT 7SM -RA OVC013 03/01 A2989 RMK AO2 SLP128 RAB30 P0000 60000 T00280011 10028 20006 56016
KTVC 221105Z AUTO 05006KT 10SM BKN015 BKN034 OVC045 03/00 A2990 RMK AO2 T00280000
KTVC 221114Z AUTO 05008KT 10SM OVC014 03/00 A2989 RMK AO2 T00280000
KTVC 221053Z AUTO 05007KT 10SM SCT015 SCT035 OVC045 03/00 A2990 RMK AO2 SLP132 T00280000
KTVC 220953Z AUTO 04005KT 10SM OVC049 03/00 A2992 RMK AO2 SLP137 T00280000  
KTVC 220853Z AUTO 03006KT 9SM OVC055 03/01 A2994 RMK AO2 SLP142 T00280006 56007 
KTVC 220753Z AUTO 00000KT 3SM BR BKN065 OVC090 02/01 A2994 RMK AO2 SLP145 T00170011 
KTVC 220751Z AUTO 00000KT 3SM BR BKN065 OVC090 02/01 A2994 RMK AO2
KTVC 220653Z AUTO 00000KT 2 1/2SM BR BKN075 OVC095 01/01 A2996 RMK AO2 SLP150 T00110006 
KTVC 220553Z AUTO 00000KT 2SM BR OVC080 01/01 A2999 RMK AO2 SLP160 T00110006 10028 20006 58001  
KTVC 220540Z AUTO 00000KT 2 1/2SM BR SCT023 OVC080 01/01 A2998 RMK AO2 T00110006
KTVC 220512Z AUTO 00000KT 2SM BR BKN023 OVC085 01/00 A2999 RMK AO2 T00110000
KTVC 220453Z AUTO 00000KT 2SM BR SCT021 OVC085 01/01 A2999 RMK AO2 SLP162 T00110006 400721006   
KTVC 220438Z AUTO 00000KT 2 1/2SM BR BKN021 OVC085 01/00 A3000 RMK AO2 T00060000